sensor_id;sensor_type;location;lat;lon;timestamp;P1;durP1;ratioP1;P2;durP2;ratioP2
16113;SDS011;8161;-33.910;151.156;2023-06-14T00:02:08;2.25;;;0.60;;
16113;SDS011;8161;-33.910;151.156;2023-06-14T00:04:35;1.88;;;0.50;;
16113;SDS011;8161;-33.910;151.156;2023-06-14T00:07:05;1.75;;;0.60;;
16113;SDS011;8161;-33.910;151.156;2023-06-14T00:09:35;1.80;;;0.50;;
16113;SDS011;8161;-33.910;151.156;2023-06-14T00:12:02;1.40;;;0.60;;
16113;SDS011;8161;-33.910;151.156;2023-06-14T00:14:29;2.88;;;0.68;;
16113;SDS011;8161;-33.910;151.156;2023-06-14T00:16:57;2.97;;;0.60;;
16113;SDS011;8161;-33.910;151.156;2023-06-14T00:19:24;2.20;;;0.80;;
16113;SDS011;8161;-33.910;151.156;2023-06-14T00:21:52;2.40;;;0.70;;
16113;SDS011;8161;-33.910;151.156;2023-06-14T00:24:20;3.88;;;0.52;;
16113;SDS011;8161;-33.910;151.156;2023-06-14T00:26:47;3.58;;;0.63;;
16113;SDS011;8161;-33.910;151.156;2023-06-14T00:29:14;0.98;;;0.40;;
16113;SDS011;8161;-33.910;151.156;2023-06-14T00:31:41;1.90;;;0.70;;
16113;SDS011;8161;-33.910;151.156;2023-06-14T00:34:09;3.58;;;0.60;;
16113;SDS011;8161;-33.910;151.156;2023-06-14T00:36:36;2.00;;;0.60;;
16113;SDS011;8161;-33.910;151.156;2023-06-14T00:39:03;2.13;;;0.50;;
16113;SDS011;8161;-33.910;151.156;2023-06-14T00:41:30;1.47;;;0.40;;
16113;SDS011;8161;-33.910;151.156;2023-06-14T00:43:58;1.45;;;0.50;;
16113;SDS011;8161;-33.910;151.156;2023-06-14T00:46:25;6.88;;;0.55;;
16113;SDS011;8161;-33.910;151.156;2023-06-14T00:48:55;2.40;;;0.57;;
16113;SDS011;8161;-33.910;151.156;2023-06-14T00:51:25;1.83;;;0.60;;
16113;SDS011;8161;-33.910;151.156;2023-06-14T00:53:53;2.38;;;0.52;;
16113;SDS011;8161;-33.910;151.156;2023-06-14T00:56:20;2.28;;;0.40;;
16113;SDS011;8161;-33.910;151.156;2023-06-14T00:58:51;1.27;;;0.40;;
16113;SDS011;8161;-33.910;151.156;2023-06-14T01:01:19;1.55;;;0.38;;
16113;SDS011;8161;-33.910;151.156;2023-06-14T01:03:47;1.27;;;0.40;;
16113;SDS011;8161;-33.910;151.156;2023-06-14T01:06:20;1.10;;;0.30;;
16113;SDS011;8161;-33.910;151.156;2023-06-14T01:09:18;1.10;;;0.40;;
16113;SDS011;8161;-33.910;151.156;2023-06-14T01:11:57;1.70;;;0.20;;
16113;SDS011;8161;-33.910;151.156;2023-06-14T01:14:39;0.88;;;0.50;;
16113;SDS011;8161;-33.910;151.156;2023-06-14T01:17:08;1.90;;;0.45;;
16113;SDS011;8161;-33.910;151.156;2023-06-14T01:19:46;1.43;;;0.47;;
16113;SDS011;8161;-33.910;151.156;2023-06-14T01:22:13;3.90;;;0.40;;
16113;SDS011;8161;-33.910;151.156;2023-06-14T01:24:41;3.80;;;0.50;;
16113;SDS011;8161;-33.910;151.156;2023-06-14T01:27:11;0.80;;;0.30;;
16113;SDS011;8161;-33.910;151.156;2023-06-14T01:29:42;2.37;;;0.53;;
16113;SDS011;8161;-33.910;151.156;2023-06-14T01:32:11;1.88;;;0.40;;
16113;SDS011;8161;-33.910;151.156;2023-06-14T01:34:38;1.70;;;0.30;;
16113;SDS011;8161;-33.910;151.156;2023-06-14T01:37:05;1.48;;;0.30;;
16113;SDS011;8161;-33.910;151.156;2023-06-14T01:39:34;1.42;;;0.30;;
16113;SDS011;8161;-33.910;151.156;2023-06-14T01:42:05;1.13;;;0.40;;
16113;SDS011;8161;-33.910;151.156;2023-06-14T01:44:33;3.00;;;0.50;;
16113;SDS011;8161;-33.910;151.156;2023-06-14T01:47:00;2.90;;;0.40;;
16113;SDS011;8161;-33.910;151.156;2023-06-14T01:49:28;0.90;;;0.20;;
16113;SDS011;8161;-33.910;151.156;2023-06-14T01:51:55;0.73;;;0.32;;
16113;SDS011;8161;-33.910;151.156;2023-06-14T01:54:22;0.98;;;0.32;;
16113;SDS011;8161;-33.910;151.156;2023-06-14T01:56:51;1.83;;;0.30;;
16113;SDS011;8161;-33.910;151.156;2023-06-14T01:59:18;1.50;;;0.20;;
16113;SDS011;8161;-33.910;151.156;2023-06-14T02:01:45;0.70;;;0.30;;
16113;SDS011;8161;-33.910;151.156;2023-06-14T02:04:15;1.73;;;0.40;;
16113;SDS011;8161;-33.910;151.156;2023-06-14T02:06:42;2.35;;;0.40;;
16113;SDS011;8161;-33.910;151.156;2023-06-14T02:09:09;4.13;;;0.40;;
16113;SDS011;8161;-33.910;151.156;2023-06-14T02:11:37;1.67;;;0.40;;
16113;SDS011;8161;-33.910;151.156;2023-06-14T02:14:04;2.73;;;0.40;;
16113;SDS011;8161;-33.910;151.156;2023-06-14T02:16:33;2.15;;;0.40;;
16113;SDS011;8161;-33.910;151.156;2023-06-14T02:19:01;1.27;;;0.40;;
16113;SDS011;8161;-33.910;151.156;2023-06-14T02:21:29;7.15;;;0.50;;
16113;SDS011;8161;-33.910;151.156;2023-06-14T02:23:56;2.50;;;0.33;;
16113;SDS011;8161;-33.910;151.156;2023-06-14T02:26:24;2.47;;;0.40;;
16113;SDS011;8161;-33.910;151.156;2023-06-14T02:28:54;1.73;;;0.50;;
16113;SDS011;8161;-33.910;151.156;2023-06-14T02:31:21;1.47;;;0.37;;
16113;SDS011;8161;-33.910;151.156;2023-06-14T02:33:48;3.30;;;0.50;;
16113;SDS011;8161;-33.910;151.156;2023-06-14T02:36:16;2.07;;;0.57;;
16113;SDS011;8161;-33.910;151.156;2023-06-14T02:38:43;2.53;;;0.60;;
16113;SDS011;8161;-33.910;151.156;2023-06-14T02:41:10;1.85;;;0.45;;
16113;SDS011;8161;-33.910;151.156;2023-06-14T02:43:38;2.80;;;0.47;;
16113;SDS011;8161;-33.910;151.156;2023-06-14T02:46:05;2.00;;;0.40;;
16113;SDS011;8161;-33.910;151.156;2023-06-14T02:48:32;1.80;;;0.50;;
16113;SDS011;8161;-33.910;151.156;2023-06-14T02:51:00;2.70;;;0.60;;
16113;SDS011;8161;-33.910;151.156;2023-06-14T02:53:27;1.60;;;0.40;;
16113;SDS011;8161;-33.910;151.156;2023-06-14T02:55:54;1.70;;;0.40;;
16113;SDS011;8161;-33.910;151.156;2023-06-14T02:58:22;2.00;;;0.52;;
16113;SDS011;8161;-33.910;151.156;2023-06-14T03:00:53;2.88;;;0.55;;
16113;SDS011;8161;-33.910;151.156;2023-06-14T03:03:20;2.33;;;0.30;;
16113;SDS011;8161;-33.910;151.156;2023-06-14T03:05:50;1.83;;;0.40;;
16113;SDS011;8161;-33.910;151.156;2023-06-14T03:08:17;1.77;;;0.35;;
16113;SDS011;8161;-33.910;151.156;2023-06-14T03:10:48;1.00;;;0.30;;
16113;SDS011;8161;-33.910;151.156;2023-06-14T03:13:15;3.60;;;0.50;;
16113;SDS011;8161;-33.910;151.156;2023-06-14T03:15:46;2.13;;;0.40;;
16113;SDS011;8161;-33.910;151.156;2023-06-14T03:18:16;2.25;;;0.40;;
16113;SDS011;8161;-33.910;151.156;2023-06-14T03:20:48;2.00;;;0.47;;
16113;SDS011;8161;-33.910;151.156;2023-06-14T03:23:19;1.52;;;0.60;;
16113;SDS011;8161;-33.910;151.156;2023-06-14T03:25:47;2.35;;;0.60;;
16113;SDS011;8161;-33.910;151.156;2023-06-14T03:28:17;4.55;;;0.60;;
16113;SDS011;8161;-33.910;151.156;2023-06-14T03:30:44;2.83;;;0.60;;
16113;SDS011;8161;-33.910;151.156;2023-06-14T03:33:11;3.35;;;0.63;;
16113;SDS011;8161;-33.910;151.156;2023-06-14T03:35:39;3.40;;;0.52;;
16113;SDS011;8161;-33.910;151.156;2023-06-14T03:38:06;3.28;;;0.45;;
16113;SDS011;8161;-33.910;151.156;2023-06-14T03:40:34;2.40;;;0.55;;
16113;SDS011;8161;-33.910;151.156;2023-06-14T03:43:01;2.80;;;0.40;;
16113;SDS011;8161;-33.910;151.156;2023-06-14T03:45:28;6.20;;;0.63;;
16113;SDS011;8161;-33.910;151.156;2023-06-14T03:47:56;2.75;;;0.40;;
16113;SDS011;8161;-33.910;151.156;2023-06-14T03:50:23;1.00;;;0.25;;
16113;SDS011;8161;-33.910;151.156;2023-06-14T03:52:51;0.77;;;0.38;;
16113;SDS011;8161;-33.910;151.156;2023-06-14T03:55:18;2.22;;;0.40;;
16113;SDS011;8161;-33.910;151.156;2023-06-14T03:57:46;2.90;;;0.60;;
16113;SDS011;8161;-33.910;151.156;2023-06-14T04:00:13;2.30;;;0.40;;
16113;SDS011;8161;-33.910;151.156;2023-06-14T04:02:41;3.25;;;0.50;;
16113;SDS011;8161;-33.910;151.156;2023-06-14T04:05:09;1.50;;;0.50;;
16113;SDS011;8161;-33.910;151.156;2023-06-14T04:07:37;3.50;;;0.70;;
16113;SDS011;8161;-33.910;151.156;2023-06-14T04:10:13;1.63;;;0.68;;
16113;SDS011;8161;-33.910;151.156;2023-06-14T04:12:41;3.60;;;0.50;;
16113;SDS011;8161;-33.910;151.156;2023-06-14T04:15:09;1.70;;;0.50;;
16113;SDS011;8161;-33.910;151.156;2023-06-14T04:17:37;1.83;;;0.68;;
16113;SDS011;8161;-33.910;151.156;2023-06-14T04:20:04;2.67;;;0.50;;
16113;SDS011;8161;-33.910;151.156;2023-06-14T04:22:34;1.65;;;0.50;;
16113;SDS011;8161;-33.910;151.156;2023-06-14T04:25:02;2.72;;;0.65;;
16113;SDS011;8161;-33.910;151.156;2023-06-14T04:27:32;3.08;;;0.40;;
16113;SDS011;8161;-33.910;151.156;2023-06-14T04:30:02;1.73;;;0.50;;
16113;SDS011;8161;-33.910;151.156;2023-06-14T04:32:32;2.93;;;0.80;;
16113;SDS011;8161;-33.910;151.156;2023-06-14T04:35:05;2.95;;;0.50;;
16113;SDS011;8161;-33.910;151.156;2023-06-14T04:37:33;3.35;;;0.50;;
16113;SDS011;8161;-33.910;151.156;2023-06-14T04:40:05;2.67;;;0.50;;
16113;SDS011;8161;-33.910;151.156;2023-06-14T04:42:33;3.42;;;0.50;;
16113;SDS011;8161;-33.910;151.156;2023-06-14T04:45:02;2.38;;;0.55;;
16113;SDS011;8161;-33.910;151.156;2023-06-14T04:47:30;1.70;;;0.50;;
16113;SDS011;8161;-33.910;151.156;2023-06-14T04:49:57;3.25;;;0.50;;
16113;SDS011;8161;-33.910;151.156;2023-06-14T04:52:25;2.40;;;0.60;;
16113;SDS011;8161;-33.910;151.156;2023-06-14T04:54:55;1.57;;;0.47;;
16113;SDS011;8161;-33.910;151.156;2023-06-14T04:57:22;2.92;;;0.75;;
16113;SDS011;8161;-33.910;151.156;2023-06-14T04:59:50;2.28;;;0.32;;
16113;SDS011;8161;-33.910;151.156;2023-06-14T05:02:22;1.77;;;0.40;;
16113;SDS011;8161;-33.910;151.156;2023-06-14T05:04:51;1.10;;;0.30;;
16113;SDS011;8161;-33.910;151.156;2023-06-14T05:07:18;2.17;;;0.80;;
16113;SDS011;8161;-33.910;151.156;2023-06-14T05:09:49;2.45;;;0.68;;
16113;SDS011;8161;-33.910;151.156;2023-06-14T05:12:17;3.45;;;0.60;;
16113;SDS011;8161;-33.910;151.156;2023-06-14T05:14:44;2.20;;;0.40;;
16113;SDS011;8161;-33.910;151.156;2023-06-14T05:17:11;4.53;;;0.50;;
16113;SDS011;8161;-33.910;151.156;2023-06-14T05:19:38;1.90;;;0.47;;
16113;SDS011;8161;-33.910;151.156;2023-06-14T05:22:06;1.25;;;0.35;;
16113;SDS011;8161;-33.910;151.156;2023-06-14T05:24:33;1.58;;;0.40;;
16113;SDS011;8161;-33.910;151.156;2023-06-14T05:27:01;0.70;;;0.30;;
16113;SDS011;8161;-33.910;151.156;2023-06-14T05:29:28;1.42;;;0.50;;
16113;SDS011;8161;-33.910;151.156;2023-06-14T05:31:55;1.17;;;0.50;;
16113;SDS011;8161;-33.910;151.156;2023-06-14T05:34:25;2.25;;;0.60;;
16113;SDS011;8161;-33.910;151.156;2023-06-14T05:36:53;0.80;;;0.30;;
16113;SDS011;8161;-33.910;151.156;2023-06-14T05:39:21;1.85;;;0.70;;
16113;SDS011;8161;-33.910;151.156;2023-06-14T05:41:49;1.73;;;0.47;;
16113;SDS011;8161;-33.910;151.156;2023-06-14T05:44:16;2.83;;;0.57;;
16113;SDS011;8161;-33.910;151.156;2023-06-14T05:46:46;4.07;;;0.57;;
16113;SDS011;8161;-33.910;151.156;2023-06-14T05:49:13;1.95;;;0.40;;
16113;SDS011;8161;-33.910;151.156;2023-06-14T05:51:41;2.47;;;0.63;;
16113;SDS011;8161;-33.910;151.156;2023-06-14T05:54:08;1.20;;;0.43;;
16113;SDS011;8161;-33.910;151.156;2023-06-14T05:56:35;2.25;;;0.65;;
16113;SDS011;8161;-33.910;151.156;2023-06-14T05:59:02;3.80;;;0.60;;
16113;SDS011;8161;-33.910;151.156;2023-06-14T06:01:30;2.67;;;0.50;;
16113;SDS011;8161;-33.910;151.156;2023-06-14T06:03:59;2.75;;;0.55;;
16113;SDS011;8161;-33.910;151.156;2023-06-14T06:06:26;5.43;;;0.60;;
16113;SDS011;8161;-33.910;151.156;2023-06-14T06:08:54;1.85;;;0.40;;
16113;SDS011;8161;-33.910;151.156;2023-06-14T06:11:21;1.75;;;0.40;;
16113;SDS011;8161;-33.910;151.156;2023-06-14T06:13:48;2.35;;;0.50;;
16113;SDS011;8161;-33.910;151.156;2023-06-14T06:16:18;4.07;;;0.70;;
16113;SDS011;8161;-33.910;151.156;2023-06-14T06:18:46;2.17;;;0.93;;
16113;SDS011;8161;-33.910;151.156;2023-06-14T06:21:13;1.95;;;0.60;;
16113;SDS011;8161;-33.910;151.156;2023-06-14T06:23:41;2.05;;;0.60;;
16113;SDS011;8161;-33.910;151.156;2023-06-14T06:26:08;3.00;;;0.50;;
16113;SDS011;8161;-33.910;151.156;2023-06-14T06:28:35;1.80;;;0.52;;
16113;SDS011;8161;-33.910;151.156;2023-06-14T06:31:03;2.08;;;0.40;;
16113;SDS011;8161;-33.910;151.156;2023-06-14T06:33:30;3.83;;;0.80;;
16113;SDS011;8161;-33.910;151.156;2023-06-14T06:35:58;1.23;;;0.50;;
16113;SDS011;8161;-33.910;151.156;2023-06-14T06:38:25;2.67;;;0.60;;
16113;SDS011;8161;-33.910;151.156;2023-06-14T06:40:52;2.92;;;0.70;;
16113;SDS011;8161;-33.910;151.156;2023-06-14T06:43:19;2.20;;;0.50;;
16113;SDS011;8161;-33.910;151.156;2023-06-14T06:45:47;3.13;;;0.88;;
16113;SDS011;8161;-33.910;151.156;2023-06-14T06:48:14;2.08;;;0.50;;
16113;SDS011;8161;-33.910;151.156;2023-06-14T06:50:41;3.60;;;0.50;;
16113;SDS011;8161;-33.910;151.156;2023-06-14T06:53:08;2.60;;;0.90;;
16113;SDS011;8161;-33.910;151.156;2023-06-14T06:55:36;2.67;;;0.52;;
16113;SDS011;8161;-33.910;151.156;2023-06-14T06:58:03;2.65;;;0.70;;
16113;SDS011;8161;-33.910;151.156;2023-06-14T07:00:31;2.17;;;0.57;;
16113;SDS011;8161;-33.910;151.156;2023-06-14T07:02:58;2.73;;;0.90;;
16113;SDS011;8161;-33.910;151.156;2023-06-14T07:05:25;2.75;;;0.60;;
16113;SDS011;8161;-33.910;151.156;2023-06-14T07:07:53;2.22;;;0.70;;
16113;SDS011;8161;-33.910;151.156;2023-06-14T07:10:23;2.80;;;0.63;;
16113;SDS011;8161;-33.910;151.156;2023-06-14T07:12:53;2.72;;;0.55;;
16113;SDS011;8161;-33.910;151.156;2023-06-14T07:15:21;2.47;;;0.60;;
16113;SDS011;8161;-33.910;151.156;2023-06-14T07:17:48;3.03;;;1.08;;
16113;SDS011;8161;-33.910;151.156;2023-06-14T07:20:16;4.78;;;0.98;;
16113;SDS011;8161;-33.910;151.156;2023-06-14T07:22:44;1.75;;;0.60;;
16113;SDS011;8161;-33.910;151.156;2023-06-14T07:25:11;2.33;;;0.70;;
16113;SDS011;8161;-33.910;151.156;2023-06-14T07:27:42;2.83;;;0.73;;
16113;SDS011;8161;-33.910;151.156;2023-06-14T07:30:11;2.58;;;0.50;;
16113;SDS011;8161;-33.910;151.156;2023-06-14T07:32:41;1.90;;;0.70;;
16113;SDS011;8161;-33.910;151.156;2023-06-14T07:35:09;3.85;;;0.77;;
16113;SDS011;8161;-33.910;151.156;2023-06-14T07:37:36;1.48;;;0.60;;
16113;SDS011;8161;-33.910;151.156;2023-06-14T07:40:04;2.50;;;0.80;;
16113;SDS011;8161;-33.910;151.156;2023-06-14T07:42:33;2.87;;;1.00;;
16113;SDS011;8161;-33.910;151.156;2023-06-14T07:45:02;2.30;;;0.80;;
16113;SDS011;8161;-33.910;151.156;2023-06-14T07:47:30;2.93;;;0.87;;
16113;SDS011;8161;-33.910;151.156;2023-06-14T07:49:57;3.70;;;0.90;;
16113;SDS011;8161;-33.910;151.156;2023-06-14T07:52:25;2.47;;;0.80;;
16113;SDS011;8161;-33.910;151.156;2023-06-14T07:54:52;2.20;;;0.73;;
16113;SDS011;8161;-33.910;151.156;2023-06-14T07:57:19;2.78;;;0.80;;
16113;SDS011;8161;-33.910;151.156;2023-06-14T07:59:46;2.80;;;0.75;;
16113;SDS011;8161;-33.910;151.156;2023-06-14T08:02:14;1.48;;;0.70;;
16113;SDS011;8161;-33.910;151.156;2023-06-14T08:04:41;2.53;;;0.90;;
16113;SDS011;8161;-33.910;151.156;2023-06-14T08:07:08;3.10;;;1.20;;
16113;SDS011;8161;-33.910;151.156;2023-06-14T08:09:36;3.05;;;1.02;;
16113;SDS011;8161;-33.910;151.156;2023-06-14T08:12:06;3.57;;;1.07;;
16113;SDS011;8161;-33.910;151.156;2023-06-14T08:14:43;3.38;;;0.85;;
16113;SDS011;8161;-33.910;151.156;2023-06-14T08:17:11;3.17;;;1.10;;
16113;SDS011;8161;-33.910;151.156;2023-06-14T08:19:38;2.97;;;1.10;;
16113;SDS011;8161;-33.910;151.156;2023-06-14T08:22:06;3.35;;;1.00;;
16113;SDS011;8161;-33.910;151.156;2023-06-14T08:24:37;4.43;;;1.33;;
16113;SDS011;8161;-33.910;151.156;2023-06-14T08:27:08;4.38;;;1.40;;
16113;SDS011;8161;-33.910;151.156;2023-06-14T08:29:35;2.47;;;1.17;;
16113;SDS011;8161;-33.910;151.156;2023-06-14T08:32:05;3.33;;;1.20;;
16113;SDS011;8161;-33.910;151.156;2023-06-14T08:34:33;2.55;;;1.13;;
16113;SDS011;8161;-33.910;151.156;2023-06-14T08:37:00;4.22;;;1.02;;
16113;SDS011;8161;-33.910;151.156;2023-06-14T08:39:27;4.07;;;1.53;;
16113;SDS011;8161;-33.910;151.156;2023-06-14T08:41:54;3.37;;;1.03;;
16113;SDS011;8161;-33.910;151.156;2023-06-14T08:44:23;3.35;;;1.33;;
16113;SDS011;8161;-33.910;151.156;2023-06-14T08:46:50;3.78;;;1.23;;
16113;SDS011;8161;-33.910;151.156;2023-06-14T08:49:19;4.03;;;1.58;;
16113;SDS011;8161;-33.910;151.156;2023-06-14T08:51:47;4.07;;;1.30;;
16113;SDS011;8161;-33.910;151.156;2023-06-14T08:54:19;3.22;;;1.15;;
16113;SDS011;8161;-33.910;151.156;2023-06-14T08:56:46;8.07;;;1.90;;
16113;SDS011;8161;-33.910;151.156;2023-06-14T08:59:14;4.60;;;1.63;;
16113;SDS011;8161;-33.910;151.156;2023-06-14T09:01:43;3.60;;;1.45;;
16113;SDS011;8161;-33.910;151.156;2023-06-14T09:04:13;3.60;;;1.47;;
16113;SDS011;8161;-33.910;151.156;2023-06-14T09:06:41;4.90;;;1.20;;
16113;SDS011;8161;-33.910;151.156;2023-06-14T09:09:09;2.90;;;1.27;;
16113;SDS011;8161;-33.910;151.156;2023-06-14T09:11:37;5.20;;;2.10;;
16113;SDS011;8161;-33.910;151.156;2023-06-14T09:14:08;5.03;;;1.65;;
16113;SDS011;8161;-33.910;151.156;2023-06-14T09:16:39;3.28;;;1.10;;
16113;SDS011;8161;-33.910;151.156;2023-06-14T09:19:10;5.38;;;1.52;;
16113;SDS011;8161;-33.910;151.156;2023-06-14T09:21:53;2.92;;;1.10;;
16113;SDS011;8161;-33.910;151.156;2023-06-14T09:24:21;5.00;;;1.33;;
16113;SDS011;8161;-33.910;151.156;2023-06-14T09:26:53;4.40;;;1.27;;
16113;SDS011;8161;-33.910;151.156;2023-06-14T09:29:21;2.63;;;1.02;;
16113;SDS011;8161;-33.910;151.156;2023-06-14T09:31:48;2.67;;;1.10;;
16113;SDS011;8161;-33.910;151.156;2023-06-14T09:34:16;2.50;;;1.00;;
16113;SDS011;8161;-33.910;151.156;2023-06-14T09:36:46;3.13;;;1.10;;
16113;SDS011;8161;-33.910;151.156;2023-06-14T09:39:16;4.25;;;1.35;;
16113;SDS011;8161;-33.910;151.156;2023-06-14T09:41:44;2.85;;;1.10;;
16113;SDS011;8161;-33.910;151.156;2023-06-14T09:44:11;4.03;;;1.20;;
16113;SDS011;8161;-33.910;151.156;2023-06-14T09:46:38;5.85;;;1.20;;
16113;SDS011;8161;-33.910;151.156;2023-06-14T09:49:06;3.50;;;1.17;;
16113;SDS011;8161;-33.910;151.156;2023-06-14T09:51:34;3.20;;;1.10;;
16113;SDS011;8161;-33.910;151.156;2023-06-14T09:54:03;6.18;;;1.92;;
16113;SDS011;8161;-33.910;151.156;2023-06-14T09:56:37;1.97;;;0.90;;
16113;SDS011;8161;-33.910;151.156;2023-06-14T09:59:09;2.67;;;0.88;;
16113;SDS011;8161;-33.910;151.156;2023-06-14T10:01:42;4.47;;;1.75;;
16113;SDS011;8161;-33.910;151.156;2023-06-14T10:04:11;3.03;;;1.35;;
16113;SDS011;8161;-33.910;151.156;2023-06-14T10:06:43;3.38;;;1.10;;
16113;SDS011;8161;-33.910;151.156;2023-06-14T10:09:12;4.20;;;1.40;;
16113;SDS011;8161;-33.910;151.156;2023-06-14T10:11:42;4.85;;;1.40;;
16113;SDS011;8161;-33.910;151.156;2023-06-14T10:14:10;2.90;;;1.40;;
16113;SDS011;8161;-33.910;151.156;2023-06-14T10:22:10;5.70;;;1.50;;
16113;SDS011;8161;-33.910;151.156;2023-06-14T10:24:44;3.95;;;1.17;;
16113;SDS011;8161;-33.910;151.156;2023-06-14T10:27:13;4.68;;;1.13;;
16113;SDS011;8161;-33.910;151.156;2023-06-14T10:32:25;3.15;;;1.15;;
16113;SDS011;8161;-33.910;151.156;2023-06-14T10:34:59;4.30;;;1.35;;
16113;SDS011;8161;-33.910;151.156;2023-06-14T10:37:27;2.85;;;1.27;;
16113;SDS011;8161;-33.910;151.156;2023-06-14T10:39:55;5.53;;;1.50;;
16113;SDS011;8161;-33.910;151.156;2023-06-14T10:42:23;4.28;;;1.40;;
16113;SDS011;8161;-33.910;151.156;2023-06-14T10:45:00;3.67;;;1.40;;
16113;SDS011;8161;-33.910;151.156;2023-06-14T10:47:29;4.53;;;1.52;;
16113;SDS011;8161;-33.910;151.156;2023-06-14T10:50:06;3.78;;;1.40;;
16113;SDS011;8161;-33.910;151.156;2023-06-14T10:52:40;6.00;;;1.50;;
16113;SDS011;8161;-33.910;151.156;2023-06-14T10:55:10;4.85;;;2.00;;
16113;SDS011;8161;-33.910;151.156;2023-06-14T11:00:22;5.28;;;1.88;;
16113;SDS011;8161;-33.910;151.156;2023-06-14T11:05:27;3.47;;;1.00;;
16113;SDS011;8161;-33.910;151.156;2023-06-14T11:10:39;3.67;;;1.13;;
16113;SDS011;8161;-33.910;151.156;2023-06-14T11:13:06;6.05;;;1.50;;
16113;SDS011;8161;-33.910;151.156;2023-06-14T11:15:35;3.88;;;1.40;;
16113;SDS011;8161;-33.910;151.156;2023-06-14T11:18:06;5.38;;;1.60;;
16113;SDS011;8161;-33.910;151.156;2023-06-14T11:20:37;4.10;;;1.05;;
16113;SDS011;8161;-33.910;151.156;2023-06-14T11:23:05;3.58;;;1.10;;
16113;SDS011;8161;-33.910;151.156;2023-06-14T11:25:32;5.87;;;1.30;;
16113;SDS011;8161;-33.910;151.156;2023-06-14T11:28:03;4.38;;;1.20;;
16113;SDS011;8161;-33.910;151.156;2023-06-14T11:30:30;4.35;;;1.10;;
16113;SDS011;8161;-33.910;151.156;2023-06-14T11:32:58;2.95;;;0.90;;
16113;SDS011;8161;-33.910;151.156;2023-06-14T11:35:25;4.07;;;1.13;;
16113;SDS011;8161;-33.910;151.156;2023-06-14T11:37:54;2.03;;;0.90;;
16113;SDS011;8161;-33.910;151.156;2023-06-14T11:40:26;3.03;;;1.10;;
16113;SDS011;8161;-33.910;151.156;2023-06-14T11:43:01;3.85;;;0.90;;
16113;SDS011;8161;-33.910;151.156;2023-06-14T11:45:28;2.57;;;0.70;;
16113;SDS011;8161;-33.910;151.156;2023-06-14T11:47:57;4.70;;;1.00;;
16113;SDS011;8161;-33.910;151.156;2023-06-14T11:50:25;4.15;;;0.90;;
16113;SDS011;8161;-33.910;151.156;2023-06-14T11:52:57;3.80;;;0.85;;
16113;SDS011;8161;-33.910;151.156;2023-06-14T11:55:35;2.80;;;0.80;;
16113;SDS011;8161;-33.910;151.156;2023-06-14T11:58:04;2.38;;;0.88;;
16113;SDS011;8161;-33.910;151.156;2023-06-14T12:00:32;4.27;;;1.17;;
16113;SDS011;8161;-33.910;151.156;2023-06-14T12:03:01;2.67;;;0.97;;
16113;SDS011;8161;-33.910;151.156;2023-06-14T12:05:29;3.05;;;0.70;;
16113;SDS011;8161;-33.910;151.156;2023-06-14T12:07:59;1.80;;;0.60;;
16113;SDS011;8161;-33.910;151.156;2023-06-14T12:10:27;6.70;;;1.00;;
16113;SDS011;8161;-33.910;151.156;2023-06-14T12:13:00;4.33;;;0.97;;
16113;SDS011;8161;-33.910;151.156;2023-06-14T12:15:28;2.95;;;0.80;;
16113;SDS011;8161;-33.910;151.156;2023-06-14T12:17:56;5.25;;;1.00;;
16113;SDS011;8161;-33.910;151.156;2023-06-14T12:20:28;5.47;;;1.05;;
16113;SDS011;8161;-33.910;151.156;2023-06-14T12:22:56;2.53;;;0.80;;
16113;SDS011;8161;-33.910;151.156;2023-06-14T12:25:32;2.95;;;0.80;;
16113;SDS011;8161;-33.910;151.156;2023-06-14T12:28:10;4.90;;;0.90;;
16113;SDS011;8161;-33.910;151.156;2023-06-14T12:30:37;3.38;;;0.90;;
16113;SDS011;8161;-33.910;151.156;2023-06-14T12:33:05;2.22;;;0.85;;
16113;SDS011;8161;-33.910;151.156;2023-06-14T12:35:36;4.17;;;0.80;;
16113;SDS011;8161;-33.910;151.156;2023-06-14T12:38:04;2.75;;;1.00;;
16113;SDS011;8161;-33.910;151.156;2023-06-14T12:40:31;6.50;;;1.02;;
16113;SDS011;8161;-33.910;151.156;2023-06-14T12:42:58;4.00;;;0.90;;
16113;SDS011;8161;-33.910;151.156;2023-06-14T12:45:26;3.88;;;0.88;;
16113;SDS011;8161;-33.910;151.156;2023-06-14T12:47:54;4.50;;;0.70;;
16113;SDS011;8161;-33.910;151.156;2023-06-14T12:50:21;2.85;;;0.85;;
16113;SDS011;8161;-33.910;151.156;2023-06-14T12:52:48;3.92;;;0.95;;
16113;SDS011;8161;-33.910;151.156;2023-06-14T12:55:16;2.42;;;0.65;;
16113;SDS011;8161;-33.910;151.156;2023-06-14T12:57:45;4.15;;;0.75;;
16113;SDS011;8161;-33.910;151.156;2023-06-14T13:00:15;2.13;;;0.60;;
16113;SDS011;8161;-33.910;151.156;2023-06-14T13:02:47;5.72;;;0.80;;
16113;SDS011;8161;-33.910;151.156;2023-06-14T13:05:14;4.82;;;1.13;;
16113;SDS011;8161;-33.910;151.156;2023-06-14T13:07:41;5.13;;;0.70;;
16113;SDS011;8161;-33.910;151.156;2023-06-14T13:10:10;3.65;;;0.77;;
16113;SDS011;8161;-33.910;151.156;2023-06-14T13:12:37;3.42;;;0.70;;
16113;SDS011;8161;-33.910;151.156;2023-06-14T13:15:05;2.90;;;0.80;;
16113;SDS011;8161;-33.910;151.156;2023-06-14T13:17:33;2.88;;;0.70;;
16113;SDS011;8161;-33.910;151.156;2023-06-14T13:20:05;2.50;;;0.63;;
16113;SDS011;8161;-33.910;151.156;2023-06-14T13:22:33;4.10;;;1.23;;
16113;SDS011;8161;-33.910;151.156;2023-06-14T13:25:04;2.08;;;0.75;;
16113;SDS011;8161;-33.910;151.156;2023-06-14T13:27:32;3.63;;;0.90;;
16113;SDS011;8161;-33.910;151.156;2023-06-14T13:29:59;4.28;;;1.00;;
16113;SDS011;8161;-33.910;151.156;2023-06-14T13:32:27;2.45;;;0.80;;
16113;SDS011;8161;-33.910;151.156;2023-06-14T13:34:54;3.95;;;0.65;;
16113;SDS011;8161;-33.910;151.156;2023-06-14T13:37:24;2.88;;;0.80;;
16113;SDS011;8161;-33.910;151.156;2023-06-14T13:39:51;3.38;;;0.82;;
16113;SDS011;8161;-33.910;151.156;2023-06-14T13:42:19;4.35;;;0.82;;
16113;SDS011;8161;-33.910;151.156;2023-06-14T13:44:46;2.53;;;0.70;;
16113;SDS011;8161;-33.910;151.156;2023-06-14T13:47:13;2.30;;;0.77;;
16113;SDS011;8161;-33.910;151.156;2023-06-14T13:49:41;3.13;;;0.90;;
16113;SDS011;8161;-33.910;151.156;2023-06-14T13:52:11;2.58;;;0.90;;
16113;SDS011;8161;-33.910;151.156;2023-06-14T13:54:39;2.30;;;0.68;;
16113;SDS011;8161;-33.910;151.156;2023-06-14T13:57:07;4.20;;;0.90;;
16113;SDS011;8161;-33.910;151.156;2023-06-14T13:59:37;3.17;;;0.90;;
16113;SDS011;8161;-33.910;151.156;2023-06-14T14:02:08;4.35;;;1.00;;
16113;SDS011;8161;-33.910;151.156;2023-06-14T14:04:37;4.25;;;0.95;;
16113;SDS011;8161;-33.910;151.156;2023-06-14T14:07:05;3.35;;;1.10;;
16113;SDS011;8161;-33.910;151.156;2023-06-14T14:09:33;3.25;;;1.10;;
16113;SDS011;8161;-33.910;151.156;2023-06-14T14:12:01;3.15;;;1.30;;
16113;SDS011;8161;-33.910;151.156;2023-06-14T14:14:29;4.40;;;1.17;;
16113;SDS011;8161;-33.910;151.156;2023-06-14T14:16:58;3.92;;;1.33;;
16113;SDS011;8161;-33.910;151.156;2023-06-14T14:19:25;3.70;;;0.93;;
16113;SDS011;8161;-33.910;151.156;2023-06-14T14:21:52;3.47;;;1.00;;
16113;SDS011;8161;-33.910;151.156;2023-06-14T14:24:20;4.60;;;0.82;;
16113;SDS011;8161;-33.910;151.156;2023-06-14T14:26:47;3.83;;;1.00;;
16113;SDS011;8161;-33.910;151.156;2023-06-14T14:29:15;2.75;;;0.80;;
16113;SDS011;8161;-33.910;151.156;2023-06-14T14:31:43;5.35;;;1.25;;
16113;SDS011;8161;-33.910;151.156;2023-06-14T14:34:10;4.75;;;1.00;;
16113;SDS011;8161;-33.910;151.156;2023-06-14T14:36:38;4.78;;;0.93;;
16113;SDS011;8161;-33.910;151.156;2023-06-14T14:39:08;4.80;;;0.97;;
16113;SDS011;8161;-33.910;151.156;2023-06-14T14:41:36;5.60;;;1.10;;
16113;SDS011;8161;-33.910;151.156;2023-06-14T14:44:04;3.85;;;0.90;;
16113;SDS011;8161;-33.910;151.156;2023-06-14T14:46:32;4.10;;;0.85;;